Terminal Aerodrome Forecast
Issued by NWS

Home | Current Version | Previous Version | Text Only | Print | Product List | Glossary On
Versions: 1 2 3 4 5 6 7 8 9 10 11 12 13
000
FTUS43 KMQT 280521
TAFIWD
TAF
KIWD 280521Z 2806/2906 21004KT P6SM SCT120
     FM281200 20006KT P6SM VCSH BKN070
     FM281600 22008KT P6SM VCSH BKN050
     FM281800 25008KT P6SM VCSH BKN050=

USA.gov is the U.S. government's official web portal to all federal, state and local government web resources and services.